sensor_id;sensor_type;location;lat;lon;timestamp;temperature;humidity
6439;DHT22;3252;52.540;13.290;2023-06-04T00:00:17;11.70;66.20
6439;DHT22;3252;52.540;13.290;2023-06-04T00:02:20;11.60;67.40
6439;DHT22;3252;52.540;13.290;2023-06-04T00:04:22;11.60;68.90
6439;DHT22;3252;52.540;13.290;2023-06-04T00:06:24;11.60;70.10
6439;DHT22;3252;52.540;13.290;2023-06-04T00:08:27;11.50;70.80
6439;DHT22;3252;52.540;13.290;2023-06-04T00:10:30;11.50;71.30
6439;DHT22;3252;52.540;13.290;2023-06-04T00:12:34;11.50;72.00
6439;DHT22;3252;52.540;13.290;2023-06-04T00:14:36;11.40;73.10
6439;DHT22;3252;52.540;13.290;2023-06-04T00:16:39;11.40;72.70
6439;DHT22;3252;52.540;13.290;2023-06-04T00:18:41;11.40;72.70
6439;DHT22;3252;52.540;13.290;2023-06-04T00:20:44;11.30;72.90
6439;DHT22;3252;52.540;13.290;2023-06-04T00:22:46;11.30;73.60
6439;DHT22;3252;52.540;13.290;2023-06-04T00:24:48;11.30;74.10
6439;DHT22;3252;52.540;13.290;2023-06-04T00:26:52;11.30;75.40
6439;DHT22;3252;52.540;13.290;2023-06-04T00:28:54;11.20;75.70
6439;DHT22;3252;52.540;13.290;2023-06-04T00:30:57;11.20;76.70
6439;DHT22;3252;52.540;13.290;2023-06-04T00:33:00;11.10;78.40
6439;DHT22;3252;52.540;13.290;2023-06-04T00:35:03;11.10;80.20
6439;DHT22;3252;52.540;13.290;2023-06-04T00:37:06;11.00;81.40
6439;DHT22;3252;52.540;13.290;2023-06-04T00:39:09;11.00;81.20
6439;DHT22;3252;52.540;13.290;2023-06-04T00:41:11;10.90;81.70
6439;DHT22;3252;52.540;13.290;2023-06-04T00:43:15;10.90;82.50
6439;DHT22;3252;52.540;13.290;2023-06-04T00:45:18;10.90;83.30
6439;DHT22;3252;52.540;13.290;2023-06-04T00:47:21;10.80;83.40
6439;DHT22;3252;52.540;13.290;2023-06-04T00:49:28;10.80;83.80
6439;DHT22;3252;52.540;13.290;2023-06-04T00:51:35;10.90;84.50
6439;DHT22;3252;52.540;13.290;2023-06-04T00:53:43;10.80;85.10
6439;DHT22;3252;52.540;13.290;2023-06-04T00:55:54;10.80;85.70
6439;DHT22;3252;52.540;13.290;2023-06-04T00:57:57;10.70;87.40
6439;DHT22;3252;52.540;13.290;2023-06-04T01:00:06;10.70;87.20
6439;DHT22;3252;52.540;13.290;2023-06-04T01:02:12;10.70;87.70
6439;DHT22;3252;52.540;13.290;2023-06-04T01:04:32;10.70;88.40
6439;DHT22;3252;52.540;13.290;2023-06-04T01:06:39;10.60;88.80
6439;DHT22;3252;52.540;13.290;2023-06-04T01:08:48;10.60;89.30
6439;DHT22;3252;52.540;13.290;2023-06-04T01:10:52;10.60;89.60
6439;DHT22;3252;52.540;13.290;2023-06-04T01:12:55;10.50;90.10
6439;DHT22;3252;52.540;13.290;2023-06-04T01:14:58;10.40;90.40
6439;DHT22;3252;52.540;13.290;2023-06-04T01:17:14;10.40;90.50
6439;DHT22;3252;52.540;13.290;2023-06-04T01:19:47;10.40;90.90
6439;DHT22;3252;52.540;13.290;2023-06-04T01:22:00;10.40;91.00
6439;DHT22;3252;52.540;13.290;2023-06-04T01:24:05;10.30;91.20
6439;DHT22;3252;52.540;13.290;2023-06-04T01:26:09;10.30;91.50
6439;DHT22;3252;52.540;13.290;2023-06-04T01:28:17;10.30;91.60
6439;DHT22;3252;52.540;13.290;2023-06-04T01:30:24;10.30;91.70
6439;DHT22;3252;52.540;13.290;2023-06-04T01:32:31;10.30;91.80
6439;DHT22;3252;52.540;13.290;2023-06-04T01:34:46;10.20;92.20
6439;DHT22;3252;52.540;13.290;2023-06-04T01:36:53;10.20;92.40
6439;DHT22;3252;52.540;13.290;2023-06-04T01:38:56;10.20;92.50
6439;DHT22;3252;52.540;13.290;2023-06-04T01:40:59;10.20;92.60
6439;DHT22;3252;52.540;13.290;2023-06-04T01:43:02;10.20;92.80
6439;DHT22;3252;52.540;13.290;2023-06-04T01:45:05;10.10;93.10
6439;DHT22;3252;52.540;13.290;2023-06-04T01:47:07;10.10;92.90
6439;DHT22;3252;52.540;13.290;2023-06-04T01:49:11;10.10;93.00
6439;DHT22;3252;52.540;13.290;2023-06-04T01:51:14;10.10;93.20
6439;DHT22;3252;52.540;13.290;2023-06-04T01:53:16;10.10;93.10
6439;DHT22;3252;52.540;13.290;2023-06-04T01:55:22;10.10;93.40
6439;DHT22;3252;52.540;13.290;2023-06-04T01:57:26;10.00;93.40
6439;DHT22;3252;52.540;13.290;2023-06-04T01:59:28;9.80;94.40
6439;DHT22;3252;52.540;13.290;2023-06-04T02:01:32;9.70;94.70
6439;DHT22;3252;52.540;13.290;2023-06-04T02:03:35;9.70;95.00
6439;DHT22;3252;52.540;13.290;2023-06-04T02:05:41;9.70;95.10
6439;DHT22;3252;52.540;13.290;2023-06-04T02:07:46;9.70;95.20
6439;DHT22;3252;52.540;13.290;2023-06-04T02:09:49;9.70;95.50
6439;DHT22;3252;52.540;13.290;2023-06-04T02:11:52;9.60;95.70
6439;DHT22;3252;52.540;13.290;2023-06-04T02:13:54;9.60;95.60
6439;DHT22;3252;52.540;13.290;2023-06-04T02:15:57;9.50;95.80
6439;DHT22;3252;52.540;13.290;2023-06-04T02:18:00;9.60;96.00
6439;DHT22;3252;52.540;13.290;2023-06-04T02:20:16;9.50;95.90
6439;DHT22;3252;52.540;13.290;2023-06-04T02:22:20;9.60;96.10
6439;DHT22;3252;52.540;13.290;2023-06-04T02:24:23;9.60;96.10
6439;DHT22;3252;52.540;13.290;2023-06-04T02:26:25;9.60;96.20
6439;DHT22;3252;52.540;13.290;2023-06-04T02:28:30;9.60;96.20
6439;DHT22;3252;52.540;13.290;2023-06-04T02:30:32;9.60;96.40
6439;DHT22;3252;52.540;13.290;2023-06-04T02:32:37;9.60;96.40
6439;DHT22;3252;52.540;13.290;2023-06-04T02:34:47;9.50;96.60
6439;DHT22;3252;52.540;13.290;2023-06-04T02:36:50;9.30;96.90
6439;DHT22;3252;52.540;13.290;2023-06-04T02:38:54;9.30;97.10
6439;DHT22;3252;52.540;13.290;2023-06-04T02:40:56;9.30;97.20
6439;DHT22;3252;52.540;13.290;2023-06-04T02:42:59;9.30;97.20
6439;DHT22;3252;52.540;13.290;2023-06-04T02:45:01;9.20;97.30
6439;DHT22;3252;52.540;13.290;2023-06-04T02:47:04;9.20;97.30
6439;DHT22;3252;52.540;13.290;2023-06-04T02:49:07;9.30;97.40
6439;DHT22;3252;52.540;13.290;2023-06-04T02:51:33;9.20;97.50
6439;DHT22;3252;52.540;13.290;2023-06-04T02:53:35;9.20;97.70
6439;DHT22;3252;52.540;13.290;2023-06-04T02:55:39;9.10;97.70
6439;DHT22;3252;52.540;13.290;2023-06-04T02:57:43;9.10;97.60
6439;DHT22;3252;52.540;13.290;2023-06-04T02:59:45;9.20;97.80
6439;DHT22;3252;52.540;13.290;2023-06-04T03:01:48;9.20;97.90
6439;DHT22;3252;52.540;13.290;2023-06-04T03:03:50;9.10;98.00
6439;DHT22;3252;52.540;13.290;2023-06-04T03:05:53;9.10;98.10
6439;DHT22;3252;52.540;13.290;2023-06-04T03:07:55;9.10;97.90
6439;DHT22;3252;52.540;13.290;2023-06-04T03:10:06;9.10;98.00
6439;DHT22;3252;52.540;13.290;2023-06-04T03:12:12;9.10;98.00
6439;DHT22;3252;52.540;13.290;2023-06-04T03:14:17;9.20;98.10
6439;DHT22;3252;52.540;13.290;2023-06-04T03:16:42;9.20;98.00
6439;DHT22;3252;52.540;13.290;2023-06-04T03:18:50;9.10;98.10
6439;DHT22;3252;52.540;13.290;2023-06-04T03:20:55;9.10;98.30
6439;DHT22;3252;52.540;13.290;2023-06-04T03:22:57;9.10;98.30
6439;DHT22;3252;52.540;13.290;2023-06-04T03:24:59;9.10;98.30
6439;DHT22;3252;52.540;13.290;2023-06-04T03:27:02;9.10;98.30
6439;DHT22;3252;52.540;13.290;2023-06-04T03:29:08;9.10;98.50
6439;DHT22;3252;52.540;13.290;2023-06-04T03:31:10;9.00;98.70
6439;DHT22;3252;52.540;13.290;2023-06-04T03:33:13;8.90;98.80
6439;DHT22;3252;52.540;13.290;2023-06-04T03:35:16;9.00;99.00
6439;DHT22;3252;52.540;13.290;2023-06-04T03:37:18;9.00;98.90
6439;DHT22;3252;52.540;13.290;2023-06-04T03:39:20;8.90;99.00
6439;DHT22;3252;52.540;13.290;2023-06-04T03:41:23;8.90;99.10
6439;DHT22;3252;52.540;13.290;2023-06-04T03:43:27;8.90;99.10
6439;DHT22;3252;52.540;13.290;2023-06-04T03:45:35;9.00;99.10
6439;DHT22;3252;52.540;13.290;2023-06-04T03:47:38;9.00;99.20
6439;DHT22;3252;52.540;13.290;2023-06-04T03:49:42;9.00;99.20
6439;DHT22;3252;52.540;13.290;2023-06-04T03:51:48;9.00;99.20
6439;DHT22;3252;52.540;13.290;2023-06-04T03:53:51;9.10;99.30
6439;DHT22;3252;52.540;13.290;2023-06-04T03:55:55;9.10;99.40
6439;DHT22;3252;52.540;13.290;2023-06-04T03:57:57;9.00;99.60
6439;DHT22;3252;52.540;13.290;2023-06-04T04:00:00;9.10;99.70
6439;DHT22;3252;52.540;13.290;2023-06-04T04:02:04;9.10;99.90
6439;DHT22;3252;52.540;13.290;2023-06-04T04:04:08;9.00;99.90
6439;DHT22;3252;52.540;13.290;2023-06-04T04:06:10;9.00;99.90
6439;DHT22;3252;52.540;13.290;2023-06-04T04:08:13;9.10;99.90
6439;DHT22;3252;52.540;13.290;2023-06-04T04:10:18;9.10;99.90
6439;DHT22;3252;52.540;13.290;2023-06-04T04:12:21;9.10;99.90
6439;DHT22;3252;52.540;13.290;2023-06-04T04:14:31;9.10;99.90
6439;DHT22;3252;52.540;13.290;2023-06-04T04:16:39;9.00;99.90
6439;DHT22;3252;52.540;13.290;2023-06-04T04:18:56;9.20;99.90
6439;DHT22;3252;52.540;13.290;2023-06-04T04:21:19;9.20;99.90
6439;DHT22;3252;52.540;13.290;2023-06-04T04:23:23;9.30;99.90
6439;DHT22;3252;52.540;13.290;2023-06-04T04:25:28;9.40;99.90
6439;DHT22;3252;52.540;13.290;2023-06-04T04:27:38;9.50;99.90
6439;DHT22;3252;52.540;13.290;2023-06-04T04:29:44;9.50;99.90
6439;DHT22;3252;52.540;13.290;2023-06-04T04:31:49;9.60;99.90
6439;DHT22;3252;52.540;13.290;2023-06-04T04:33:55;9.70;99.90
6439;DHT22;3252;52.540;13.290;2023-06-04T04:35:58;9.80;99.90
6439;DHT22;3252;52.540;13.290;2023-06-04T04:38:01;9.90;99.90
6439;DHT22;3252;52.540;13.290;2023-06-04T04:40:07;9.90;99.90
6439;DHT22;3252;52.540;13.290;2023-06-04T04:42:13;10.00;99.90
6439;DHT22;3252;52.540;13.290;2023-06-04T04:44:16;10.00;99.90
6439;DHT22;3252;52.540;13.290;2023-06-04T04:46:19;10.10;99.90
6439;DHT22;3252;52.540;13.290;2023-06-04T04:48:22;10.20;99.90
6439;DHT22;3252;52.540;13.290;2023-06-04T04:50:26;10.20;99.90
6439;DHT22;3252;52.540;13.290;2023-06-04T04:52:28;10.30;99.90
6439;DHT22;3252;52.540;13.290;2023-06-04T04:54:31;10.40;99.90
6439;DHT22;3252;52.540;13.290;2023-06-04T04:56:34;10.50;99.90
6439;DHT22;3252;52.540;13.290;2023-06-04T04:58:37;10.50;99.90
6439;DHT22;3252;52.540;13.290;2023-06-04T05:00:39;10.60;99.90
6439;DHT22;3252;52.540;13.290;2023-06-04T05:02:42;10.70;99.90
6439;DHT22;3252;52.540;13.290;2023-06-04T05:04:45;10.80;99.90
6439;DHT22;3252;52.540;13.290;2023-06-04T05:06:52;10.90;99.80
6439;DHT22;3252;52.540;13.290;2023-06-04T05:08:57;11.00;99.80
6439;DHT22;3252;52.540;13.290;2023-06-04T05:11:04;11.10;99.70
6439;DHT22;3252;52.540;13.290;2023-06-04T05:13:12;11.20;99.70
6439;DHT22;3252;52.540;13.290;2023-06-04T05:15:24;11.30;99.70
6439;DHT22;3252;52.540;13.290;2023-06-04T05:17:29;11.40;99.80
6439;DHT22;3252;52.540;13.290;2023-06-04T05:19:35;11.50;99.60
6439;DHT22;3252;52.540;13.290;2023-06-04T05:21:40;11.50;99.40
6439;DHT22;3252;52.540;13.290;2023-06-04T05:23:44;11.60;99.10
6439;DHT22;3252;52.540;13.290;2023-06-04T05:25:50;11.70;99.40
6439;DHT22;3252;52.540;13.290;2023-06-04T05:27:56;11.80;99.30
6439;DHT22;3252;52.540;13.290;2023-06-04T05:29:59;11.90;99.20
6439;DHT22;3252;52.540;13.290;2023-06-04T05:32:04;12.00;99.00
6439;DHT22;3252;52.540;13.290;2023-06-04T05:34:07;12.10;98.80
6439;DHT22;3252;52.540;13.290;2023-06-04T05:36:14;12.20;98.90
6439;DHT22;3252;52.540;13.290;2023-06-04T05:38:25;12.30;98.90
6439;DHT22;3252;52.540;13.290;2023-06-04T05:40:35;12.40;98.70
6439;DHT22;3252;52.540;13.290;2023-06-04T05:42:39;12.50;98.30
6439;DHT22;3252;52.540;13.290;2023-06-04T05:44:41;12.60;98.00
6439;DHT22;3252;52.540;13.290;2023-06-04T05:46:45;12.70;98.10
6439;DHT22;3252;52.540;13.290;2023-06-04T05:48:48;12.80;98.00
6439;DHT22;3252;52.540;13.290;2023-06-04T05:50:52;13.00;97.20
6439;DHT22;3252;52.540;13.290;2023-06-04T05:52:55;13.10;97.10
6439;DHT22;3252;52.540;13.290;2023-06-04T05:54:58;13.20;96.90
6439;DHT22;3252;52.540;13.290;2023-06-04T05:57:02;13.30;96.50
6439;DHT22;3252;52.540;13.290;2023-06-04T05:59:04;13.40;96.20
6439;DHT22;3252;52.540;13.290;2023-06-04T06:01:06;13.60;95.90
6439;DHT22;3252;52.540;13.290;2023-06-04T06:03:09;13.80;95.20
6439;DHT22;3252;52.540;13.290;2023-06-04T06:05:18;13.90;94.90
6439;DHT22;3252;52.540;13.290;2023-06-04T06:07:21;14.10;94.60
6439;DHT22;3252;52.540;13.290;2023-06-04T06:09:23;14.20;93.90
6439;DHT22;3252;52.540;13.290;2023-06-04T06:11:26;14.40;93.40
6439;DHT22;3252;52.540;13.290;2023-06-04T06:13:31;14.40;92.80
6439;DHT22;3252;52.540;13.290;2023-06-04T06:15:34;14.60;92.80
6439;DHT22;3252;52.540;13.290;2023-06-04T06:17:38;14.70;91.10
6439;DHT22;3252;52.540;13.290;2023-06-04T06:19:41;14.80;84.80
6439;DHT22;3252;52.540;13.290;2023-06-04T06:21:45;14.90;77.60
6439;DHT22;3252;52.540;13.290;2023-06-04T06:23:48;15.10;76.40
6439;DHT22;3252;52.540;13.290;2023-06-04T06:25:50;15.20;74.70
6439;DHT22;3252;52.540;13.290;2023-06-04T06:27:57;15.30;73.70
6439;DHT22;3252;52.540;13.290;2023-06-04T06:30:03;15.50;74.80
6439;DHT22;3252;52.540;13.290;2023-06-04T06:32:06;15.60;73.60
6439;DHT22;3252;52.540;13.290;2023-06-04T06:34:08;15.70;72.70
6439;DHT22;3252;52.540;13.290;2023-06-04T06:36:10;15.80;70.50
6439;DHT22;3252;52.540;13.290;2023-06-04T06:38:13;15.90;70.30
6439;DHT22;3252;52.540;13.290;2023-06-04T06:40:15;16.00;66.20
6439;DHT22;3252;52.540;13.290;2023-06-04T06:42:18;16.10;65.70
6439;DHT22;3252;52.540;13.290;2023-06-04T06:44:22;16.20;62.20
6439;DHT22;3252;52.540;13.290;2023-06-04T06:46:26;16.30;60.00
6439;DHT22;3252;52.540;13.290;2023-06-04T06:48:28;16.40;58.70
6439;DHT22;3252;52.540;13.290;2023-06-04T06:50:31;16.50;58.70
6439;DHT22;3252;52.540;13.290;2023-06-04T06:52:34;16.60;59.10
6439;DHT22;3252;52.540;13.290;2023-06-04T06:54:36;16.70;57.70
6439;DHT22;3252;52.540;13.290;2023-06-04T06:56:38;16.70;57.20
6439;DHT22;3252;52.540;13.290;2023-06-04T06:58:40;16.80;56.70
6439;DHT22;3252;52.540;13.290;2023-06-04T07:00:43;16.90;56.40
6439;DHT22;3252;52.540;13.290;2023-06-04T07:02:46;17.00;56.20
6439;DHT22;3252;52.540;13.290;2023-06-04T07:04:48;17.00;53.60
6439;DHT22;3252;52.540;13.290;2023-06-04T07:06:51;17.10;52.50
6439;DHT22;3252;52.540;13.290;2023-06-04T07:08:53;17.10;51.80
6439;DHT22;3252;52.540;13.290;2023-06-04T07:10:56;17.20;48.80
6439;DHT22;3252;52.540;13.290;2023-06-04T07:12:58;17.30;49.10
6439;DHT22;3252;52.540;13.290;2023-06-04T07:15:00;17.40;47.50
6439;DHT22;3252;52.540;13.290;2023-06-04T07:17:03;17.50;45.80
6439;DHT22;3252;52.540;13.290;2023-06-04T07:19:06;17.50;45.40
6439;DHT22;3252;52.540;13.290;2023-06-04T07:21:09;17.60;45.30
6439;DHT22;3252;52.540;13.290;2023-06-04T07:23:11;17.70;45.80
6439;DHT22;3252;52.540;13.290;2023-06-04T07:25:13;17.80;45.40
6439;DHT22;3252;52.540;13.290;2023-06-04T07:27:16;17.90;45.40
6439;DHT22;3252;52.540;13.290;2023-06-04T07:29:18;18.00;44.10
6439;DHT22;3252;52.540;13.290;2023-06-04T07:31:20;18.00;43.70
6439;DHT22;3252;52.540;13.290;2023-06-04T07:33:22;18.10;43.30
6439;DHT22;3252;52.540;13.290;2023-06-04T07:35:26;18.20;43.00
6439;DHT22;3252;52.540;13.290;2023-06-04T07:37:28;18.20;42.10
6439;DHT22;3252;52.540;13.290;2023-06-04T07:39:31;18.30;42.80
6439;DHT22;3252;52.540;13.290;2023-06-04T07:41:33;18.40;43.00
6439;DHT22;3252;52.540;13.290;2023-06-04T07:43:36;18.40;42.60
6439;DHT22;3252;52.540;13.290;2023-06-04T07:45:38;18.50;42.50
6439;DHT22;3252;52.540;13.290;2023-06-04T07:47:41;18.50;40.80
6439;DHT22;3252;52.540;13.290;2023-06-04T07:49:44;18.70;41.60
6439;DHT22;3252;52.540;13.290;2023-06-04T07:51:47;18.80;40.90
6439;DHT22;3252;52.540;13.290;2023-06-04T07:53:50;19.10;42.50
6439;DHT22;3252;52.540;13.290;2023-06-04T07:55:53;19.30;40.70
6439;DHT22;3252;52.540;13.290;2023-06-04T07:57:55;19.50;40.30
6439;DHT22;3252;52.540;13.290;2023-06-04T07:59:58;19.50;40.40
6439;DHT22;3252;52.540;13.290;2023-06-04T08:02:00;19.40;41.20
6439;DHT22;3252;52.540;13.290;2023-06-04T08:04:03;19.40;40.70
6439;DHT22;3252;52.540;13.290;2023-06-04T08:06:05;19.20;40.40
6439;DHT22;3252;52.540;13.290;2023-06-04T08:08:09;19.30;40.90
6439;DHT22;3252;52.540;13.290;2023-06-04T08:10:11;19.40;40.40
6439;DHT22;3252;52.540;13.290;2023-06-04T08:12:13;19.30;39.00
6439;DHT22;3252;52.540;13.290;2023-06-04T08:14:16;19.20;39.90
6439;DHT22;3252;52.540;13.290;2023-06-04T08:16:20;19.20;40.90
6439;DHT22;3252;52.540;13.290;2023-06-04T08:18:42;19.30;40.50
6439;DHT22;3252;52.540;13.290;2023-06-04T08:20:49;19.40;41.40
6439;DHT22;3252;52.540;13.290;2023-06-04T08:23:03;19.40;41.30
6439;DHT22;3252;52.540;13.290;2023-06-04T08:25:27;19.50;40.40
6439;DHT22;3252;52.540;13.290;2023-06-04T08:27:50;19.40;39.60
6439;DHT22;3252;52.540;13.290;2023-06-04T08:30:12;19.40;39.00
6439;DHT22;3252;52.540;13.290;2023-06-04T08:32:34;19.40;38.80
6439;DHT22;3252;52.540;13.290;2023-06-04T08:34:39;19.50;39.00
6439;DHT22;3252;52.540;13.290;2023-06-04T08:36:41;19.50;38.60
6439;DHT22;3252;52.540;13.290;2023-06-04T08:38:43;19.50;37.50
6439;DHT22;3252;52.540;13.290;2023-06-04T08:40:49;19.80;37.70
6439;DHT22;3252;52.540;13.290;2023-06-04T08:42:55;19.70;37.10
6439;DHT22;3252;52.540;13.290;2023-06-04T08:44:59;19.80;37.30
6439;DHT22;3252;52.540;13.290;2023-06-04T08:47:03;19.80;37.70
6439;DHT22;3252;52.540;13.290;2023-06-04T08:49:07;19.90;38.00
6439;DHT22;3252;52.540;13.290;2023-06-04T08:51:10;20.00;37.80
6439;DHT22;3252;52.540;13.290;2023-06-04T08:53:14;20.10;37.80
6439;DHT22;3252;52.540;13.290;2023-06-04T08:55:17;20.20;38.30
6439;DHT22;3252;52.540;13.290;2023-06-04T08:57:21;20.30;37.50
6439;DHT22;3252;52.540;13.290;2023-06-04T08:59:24;20.30;36.90
6439;DHT22;3252;52.540;13.290;2023-06-04T09:01:26;20.40;36.20
6439;DHT22;3252;52.540;13.290;2023-06-04T09:03:29;20.40;36.20
6439;DHT22;3252;52.540;13.290;2023-06-04T09:05:32;20.40;36.30
6439;DHT22;3252;52.540;13.290;2023-06-04T09:07:36;20.30;37.00
6439;DHT22;3252;52.540;13.290;2023-06-04T09:09:40;20.40;37.20
6439;DHT22;3252;52.540;13.290;2023-06-04T09:11:48;20.40;37.30
6439;DHT22;3252;52.540;13.290;2023-06-04T09:13:53;20.70;36.50
6439;DHT22;3252;52.540;13.290;2023-06-04T09:16:00;21.40;35.70
6439;DHT22;3252;52.540;13.290;2023-06-04T09:18:02;22.10;34.70
6439;DHT22;3252;52.540;13.290;2023-06-04T09:20:05;22.70;34.10
6439;DHT22;3252;52.540;13.290;2023-06-04T09:22:09;22.60;33.90
6439;DHT22;3252;52.540;13.290;2023-06-04T09:24:11;22.40;34.20
6439;DHT22;3252;52.540;13.290;2023-06-04T09:26:14;21.80;33.80
6439;DHT22;3252;52.540;13.290;2023-06-04T09:28:17;21.70;34.40
6439;DHT22;3252;52.540;13.290;2023-06-04T09:30:21;21.60;34.70
6439;DHT22;3252;52.540;13.290;2023-06-04T09:32:27;21.50;34.40
6439;DHT22;3252;52.540;13.290;2023-06-04T09:34:30;21.50;34.70
6439;DHT22;3252;52.540;13.290;2023-06-04T09:36:34;21.60;35.20
6439;DHT22;3252;52.540;13.290;2023-06-04T09:38:37;21.50;35.10
6439;DHT22;3252;52.540;13.290;2023-06-04T09:40:42;21.60;35.10
6439;DHT22;3252;52.540;13.290;2023-06-04T09:42:45;21.60;35.20
6439;DHT22;3252;52.540;13.290;2023-06-04T09:44:50;21.60;35.30
6439;DHT22;3252;52.540;13.290;2023-06-04T09:46:57;21.50;34.40
6439;DHT22;3252;52.540;13.290;2023-06-04T09:49:02;21.40;34.30
6439;DHT22;3252;52.540;13.290;2023-06-04T09:51:08;21.40;34.90
6439;DHT22;3252;52.540;13.290;2023-06-04T09:53:14;21.40;35.10
6439;DHT22;3252;52.540;13.290;2023-06-04T09:55:18;21.40;34.80
6439;DHT22;3252;52.540;13.290;2023-06-04T09:57:21;21.40;34.50
6439;DHT22;3252;52.540;13.290;2023-06-04T09:59:24;21.30;34.60
6439;DHT22;3252;52.540;13.290;2023-06-04T10:01:29;21.20;34.60
6439;DHT22;3252;52.540;13.290;2023-06-04T10:03:34;21.10;34.40
6439;DHT22;3252;52.540;13.290;2023-06-04T10:05:37;20.90;34.50
6439;DHT22;3252;52.540;13.290;2023-06-04T10:07:40;21.10;35.00
6439;DHT22;3252;52.540;13.290;2023-06-04T10:09:44;21.10;34.80
6439;DHT22;3252;52.540;13.290;2023-06-04T10:11:52;21.10;34.80
6439;DHT22;3252;52.540;13.290;2023-06-04T10:14:07;21.20;34.80
6439;DHT22;3252;52.540;13.290;2023-06-04T10:16:11;21.20;34.90
6439;DHT22;3252;52.540;13.290;2023-06-04T10:18:15;21.30;34.90
6439;DHT22;3252;52.540;13.290;2023-06-04T10:20:18;21.40;35.00
6439;DHT22;3252;52.540;13.290;2023-06-04T10:22:21;21.40;34.30
6439;DHT22;3252;52.540;13.290;2023-06-04T10:24:24;21.40;34.20
6439;DHT22;3252;52.540;13.290;2023-06-04T10:26:27;21.40;34.30
6439;DHT22;3252;52.540;13.290;2023-06-04T10:28:31;21.00;33.70
6439;DHT22;3252;52.540;13.290;2023-06-04T10:30:34;21.10;34.30
6439;DHT22;3252;52.540;13.290;2023-06-04T10:32:37;21.20;35.10
6439;DHT22;3252;52.540;13.290;2023-06-04T10:34:40;21.40;34.30
6439;DHT22;3252;52.540;13.290;2023-06-04T10:36:44;21.50;34.50
6439;DHT22;3252;52.540;13.290;2023-06-04T10:38:47;21.60;34.50
6439;DHT22;3252;52.540;13.290;2023-06-04T10:40:49;21.80;34.50
6439;DHT22;3252;52.540;13.290;2023-06-04T10:42:52;21.90;34.10
6439;DHT22;3252;52.540;13.290;2023-06-04T10:44:55;22.00;34.10
6439;DHT22;3252;52.540;13.290;2023-06-04T10:46:57;22.10;33.40
6439;DHT22;3252;52.540;13.290;2023-06-04T10:49:00;22.20;33.50
6439;DHT22;3252;52.540;13.290;2023-06-04T10:51:02;22.20;33.20
6439;DHT22;3252;52.540;13.290;2023-06-04T10:53:06;22.10;33.10
6439;DHT22;3252;52.540;13.290;2023-06-04T10:55:09;22.20;33.50
6439;DHT22;3252;52.540;13.290;2023-06-04T10:57:12;22.30;33.80
6439;DHT22;3252;52.540;13.290;2023-06-04T10:59:16;22.40;33.90
6439;DHT22;3252;52.540;13.290;2023-06-04T11:01:23;22.10;33.10
6439;DHT22;3252;52.540;13.290;2023-06-04T11:03:35;22.20;33.40
6439;DHT22;3252;52.540;13.290;2023-06-04T11:05:39;22.30;33.80
6439;DHT22;3252;52.540;13.290;2023-06-04T11:07:42;22.40;34.20
6439;DHT22;3252;52.540;13.290;2023-06-04T11:09:49;22.50;33.20
6439;DHT22;3252;52.540;13.290;2023-06-04T11:11:56;22.40;33.10
6439;DHT22;3252;52.540;13.290;2023-06-04T11:14:07;22.40;33.90
6439;DHT22;3252;52.540;13.290;2023-06-04T11:16:16;22.50;33.60
6439;DHT22;3252;52.540;13.290;2023-06-04T11:18:19;22.40;33.10
6439;DHT22;3252;52.540;13.290;2023-06-04T11:20:23;22.50;33.70
6439;DHT22;3252;52.540;13.290;2023-06-04T11:22:26;22.60;33.30
6439;DHT22;3252;52.540;13.290;2023-06-04T11:24:29;22.50;32.80
6439;DHT22;3252;52.540;13.290;2023-06-04T11:26:34;22.50;33.20
6439;DHT22;3252;52.540;13.290;2023-06-04T11:28:36;22.50;32.80
6439;DHT22;3252;52.540;13.290;2023-06-04T11:30:39;22.40;32.60
6439;DHT22;3252;52.540;13.290;2023-06-04T11:32:41;22.40;32.90
6439;DHT22;3252;52.540;13.290;2023-06-04T11:34:43;22.20;32.50
6439;DHT22;3252;52.540;13.290;2023-06-04T11:36:45;22.20;33.00
6439;DHT22;3252;52.540;13.290;2023-06-04T11:38:54;22.30;33.10
6439;DHT22;3252;52.540;13.290;2023-06-04T11:40:58;22.40;33.30
6439;DHT22;3252;52.540;13.290;2023-06-04T11:43:02;22.50;33.30
6439;DHT22;3252;52.540;13.290;2023-06-04T11:45:06;22.60;33.50
6439;DHT22;3252;52.540;13.290;2023-06-04T11:47:09;22.70;33.60
6439;DHT22;3252;52.540;13.290;2023-06-04T11:49:13;22.80;32.90
6439;DHT22;3252;52.540;13.290;2023-06-04T11:51:17;22.70;32.40
6439;DHT22;3252;52.540;13.290;2023-06-04T11:53:19;22.80;32.60
6439;DHT22;3252;52.540;13.290;2023-06-04T11:55:22;22.90;32.20
6439;DHT22;3252;52.540;13.290;2023-06-04T11:57:25;22.90;32.00
6439;DHT22;3252;52.540;13.290;2023-06-04T11:59:28;22.90;31.80
6439;DHT22;3252;52.540;13.290;2023-06-04T12:01:31;22.90;31.20
6439;DHT22;3252;52.540;13.290;2023-06-04T12:03:36;22.90;31.30
6439;DHT22;3252;52.540;13.290;2023-06-04T12:05:39;22.90;31.50
6439;DHT22;3252;52.540;13.290;2023-06-04T12:07:41;22.90;31.20
6439;DHT22;3252;52.540;13.290;2023-06-04T12:09:43;23.00;31.70
6439;DHT22;3252;52.540;13.290;2023-06-04T12:11:46;22.70;30.90
6439;DHT22;3252;52.540;13.290;2023-06-04T12:13:48;22.60;31.10
6439;DHT22;3252;52.540;13.290;2023-06-04T12:15:52;22.60;31.60
6439;DHT22;3252;52.540;13.290;2023-06-04T12:17:55;22.60;31.60
6439;DHT22;3252;52.540;13.290;2023-06-04T12:19:57;22.70;32.10
6439;DHT22;3252;52.540;13.290;2023-06-04T12:22:00;22.80;31.80
6439;DHT22;3252;52.540;13.290;2023-06-04T12:24:07;22.80;31.60
6439;DHT22;3252;52.540;13.290;2023-06-04T12:26:20;22.80;31.60
6439;DHT22;3252;52.540;13.290;2023-06-04T12:28:29;22.90;31.70
6439;DHT22;3252;52.540;13.290;2023-06-04T12:30:35;22.70;31.40
6439;DHT22;3252;52.540;13.290;2023-06-04T12:32:39;22.70;31.70
6439;DHT22;3252;52.540;13.290;2023-06-04T12:34:43;22.80;32.30
6439;DHT22;3252;52.540;13.290;2023-06-04T12:36:46;22.40;31.30
6439;DHT22;3252;52.540;13.290;2023-06-04T12:38:48;22.30;31.40
6439;DHT22;3252;52.540;13.290;2023-06-04T12:40:51;22.40;31.80
6439;DHT22;3252;52.540;13.290;2023-06-04T12:42:53;22.50;31.70
6439;DHT22;3252;52.540;13.290;2023-06-04T12:44:55;22.50;31.70
6439;DHT22;3252;52.540;13.290;2023-06-04T12:46:58;22.50;31.90
6439;DHT22;3252;52.540;13.290;2023-06-04T12:49:02;22.70;32.00
6439;DHT22;3252;52.540;13.290;2023-06-04T12:51:04;22.70;31.80
6439;DHT22;3252;52.540;13.290;2023-06-04T12:53:06;22.80;32.10
6439;DHT22;3252;52.540;13.290;2023-06-04T12:55:09;22.60;31.60
6439;DHT22;3252;52.540;13.290;2023-06-04T12:57:12;22.60;31.30
6439;DHT22;3252;52.540;13.290;2023-06-04T12:59:14;22.70;31.40
6439;DHT22;3252;52.540;13.290;2023-06-04T13:01:17;22.70;31.10
6439;DHT22;3252;52.540;13.290;2023-06-04T13:03:20;22.60;31.30
6439;DHT22;3252;52.540;13.290;2023-06-04T13:05:23;22.60;31.80
6439;DHT22;3252;52.540;13.290;2023-06-04T13:07:26;22.70;31.20
6439;DHT22;3252;52.540;13.290;2023-06-04T13:09:28;22.60;31.50
6439;DHT22;3252;52.540;13.290;2023-06-04T13:11:31;22.80;32.20
6439;DHT22;3252;52.540;13.290;2023-06-04T13:13:34;22.90;31.60
6439;DHT22;3252;52.540;13.290;2023-06-04T13:15:36;23.00;31.20
6439;DHT22;3252;52.540;13.290;2023-06-04T13:17:38;23.00;30.90
6439;DHT22;3252;52.540;13.290;2023-06-04T13:19:40;22.90;30.60
6439;DHT22;3252;52.540;13.290;2023-06-04T13:21:44;22.80;30.70